Vittoria — 3FJY5 — position and weather

sailwx.info

Track history (hours):
 
Tides and Currents Weather Stations Pressure Air Temp Water Temp Dewpoint Dewpoint Depression Visibility Wind Speed Wind Dir Waves Ship Positions

Vittoria

Last reported at 2018-Nov-01 17:25 UTC. Time now 2018-Nov-17 19:03 UTC.
Position N 24°19' E 118°54'.
Warning: this ship's position is 16 days out of date.

Length 211 m; draft 6.8 m.

Type: Cargo ship. MMSI: 354314000.

Date/timePositionNaut miles runAvg speedWind from/ knotsBaromVisibWave heightAir tempDewpointWater temp
2018-Nov-01 17:25N 24°19' E 118°54'2 4.6
2018-Nov-01 17:02N 24°18' E 118°53'3 3.8
2018-Nov-01 16:16N 24°17' E 118°50'1 3.8
2018-Nov-01 15:59N 24°16' E 118°49'11 3.4
2018-Nov-01 12:42N 24°09' E 118°39'2 3.2
2018-Nov-01 12:13N 24°08' E 118°38'1 2.9
2018-Nov-01 12:00N 24°08' E 118°37'1 2.7
2018-Nov-01 11:28N 24°07' E 118°36'4 2.4
2018-Nov-01 09:57N 24°05' E 118°33'3 2.4
2018-Nov-01 08:51N 24°03' E 118°30'1 2.3
2018-Nov-01 08:29N 24°03' E 118°30'1 2.6
2018-Nov-01 08:03N 24°02' E 118°28'0 2.9
2018-Nov-01 07:55N 24°02' E 118°28'1 2.7
2018-Nov-01 07:30N 24°01' E 118°27'2 3.3
2018-Nov-01 07:03N 24°00' E 118°26'0 3.4
2018-Nov-01 07:00N 24°00' E 118°26'2 3.3
2018-Nov-01 06:30N 23°59' E 118°24'2 3.6
2018-Nov-01 05:59N 23°58' E 118°23'3 3.7
2018-Nov-01 05:09N 23°56' E 118°21'1 2.7
2018-Nov-01 04:48N 23°55' E 118°20'7 2.2
2018-Nov-01 01:30N 23°50' E 118°14'5 2.0
2018-Oct-31 22:45N 23°46' E 118°10'13 3.2
2018-Oct-31 18:36N 23°38' E 117°58'3 3.8
2018-Oct-31 17:49N 23°37' E 117°56'1 3.4
2018-Oct-31 17:29N 23°36' E 117°54'2 4.1
2018-Oct-31 17:03N 23°35' E 117°53'0 3.8
2018-Oct-31 17:00N 23°35' E 117°53'2 3.6
2018-Oct-31 16:30N 23°34' E 117°51'2 3.8
2018-Oct-31 16:03N 23°33' E 117°50'0 4.2
2018-Oct-31 16:00N 23°33' E 117°50'2 4.5
2018-Oct-31 15:30N 23°32' E 117°48'2 4.3
2018-Oct-31 15:03N 23°31' E 117°46'0 4.2
2018-Oct-31 15:00N 23°30' E 117°46'2 3.8
2018-Oct-31 14:30N 23°29' E 117°44'2 3.4
2018-Oct-31 14:00N 23°29' E 117°42'2 3.1
2018-Oct-31 13:30N 23°29' E 117°40'1 3.3
2018-Oct-31 13:03N 23°29' E 117°39'0 4.2
2018-Oct-31 13:00N 23°29' E 117°39'2 3.5
2018-Oct-31 12:30N 23°28' E 117°37'2 3.8
2018-Oct-31 12:03N 23°28' E 117°35'0 4.4
2018-Oct-31 12:00N 23°28' E 117°35'2 4.3
2018-Oct-31 11:30N 23°28' E 117°32'2 4.0
2018-Oct-31 11:03N 23°28' E 117°30'0 3.3
2018-Oct-31 11:00N 23°28' E 117°30'2 4.3
2018-Oct-31 10:30N 23°28' E 117°28'2 3.7
2018-Oct-31 10:03N 23°27' E 117°26'0 3.0
2018-Oct-31 10:00N 23°26' E 117°26'2 3.4
2018-Oct-31 09:30N 23°26' E 117°24'2 4.4
2018-Oct-31 09:03N 23°26' E 117°22'0 5.2
2018-Oct-31 09:00N 23°26' E 117°22'3 5.4
2018-Oct-31 08:30N 23°26' E 117°19'3 5.7
2018-Oct-31 08:03N 23°26' E 117°16'0 7.7
2018-Oct-31 08:00N 23°26' E 117°16'4 7.4
2018-Oct-31 07:30N 23°27' E 117°12'4 8.0
2018-Oct-31 07:03N 23°30' E 117°09'0 8.1
2018-Oct-31 07:00N 23°30' E 117°09'4 7.5
2018-Oct-31 06:30N 23°33' E 117°06'1 1.9
2018-Oct-31 06:03N 23°34' E 117°06'0 0.0
2018-Oct-31 06:00N 23°34' E 117°06'0 0.0
2018-Oct-31 05:25N 23°34' E 117°06'0 0.0
2018-Oct-31 04:58N 23°34' E 117°06'0 0.0
2018-Oct-31 04:28N 23°34' E 117°06'0 0.0
2018-Oct-31 04:01N 23°34' E 117°06'0 0.0
2018-Oct-31 03:58N 23°34' E 117°06'0 0.0
2018-Oct-31 03:28N 23°34' E 117°06'0 0.0
2018-Oct-31 02:58N 23°34' E 117°06'0 0.0
2018-Oct-31 02:25N 23°34' E 117°06'0 0.0
2018-Oct-31 02:01N 23°34' E 117°06'0 0.1
2018-Oct-31 01:58N 23°34' E 117°06'0 0.0
2018-Oct-31 01:28N 23°34' E 117°06'0 0.0
2018-Oct-31 01:01N 23°34' E 117°06'0 0.1
2018-Oct-31 00:58N 23°34' E 117°06'0 0.0
2018-Oct-31 00:28N 23°34' E 117°06'0 0.0
2018-Oct-31 00:01N 23°34' E 117°06'0 0.1
2018-Oct-30 23:58N 23°34' E 117°06'0 0.0
2018-Oct-30 23:28N 23°34' E 117°06'0 0.0
2018-Oct-30 23:01N 23°34' E 117°06'0 0.0
2018-Oct-30 22:58N 23°34' E 117°06'0 0.0
2018-Oct-30 22:25N 23°34' E 117°06'0 0.0
2018-Oct-30 22:01N 23°34' E 117°06'0 0.0
2018-Oct-30 21:58N 23°34' E 117°06'0 0.0
2018-Oct-30 21:28N 23°34' E 117°06'0 0.0
2018-Oct-30 21:01N 23°34' E 117°06'0 0.0
2018-Oct-30 20:58N 23°34' E 117°06'0 0.0
2018-Oct-30 20:28N 23°34' E 117°06'0 0.0
2018-Oct-30 20:01N 23°34' E 117°06'0 0.1
2018-Oct-30 19:58N 23°34' E 117°06'0 0.0
2018-Oct-30 19:28N 23°34' E 117°06'0 0.0
2018-Oct-30 19:01N 23°34' E 117°06'0 0.1
2018-Oct-30 18:58N 23°34' E 117°06'0 0.0
2018-Oct-30 18:28N 23°34' E 117°06'0 0.0
2018-Oct-30 18:01N 23°34' E 117°06'0 0.1
2018-Oct-30 17:58N 23°34' E 117°06'0 0.0
2018-Oct-30 17:28N 23°34' E 117°06'0 0.0
2018-Oct-30 16:58N 23°34' E 117°06'0 0.0
2018-Oct-30 16:28N 23°34' E 117°06'0 0.0
2018-Oct-30 16:01N 23°34' E 117°06'0 0.0
2018-Oct-30 15:58N 23°34' E 117°06'0 0.0
2018-Oct-30 15:28N 23°34' E 117°06'0 0.0
2018-Oct-30 15:01N 23°34' E 117°06'0 0.0
2018-Oct-30 14:55N 23°34' E 117°06'0 0.0
2018-Oct-30 14:01N 23°34' E 117°06'0 0.0
2018-Oct-30 13:31N 23°34' E 117°06'0 0.0
2018-Oct-30 13:01N 23°34' E 117°06'0 0.1
2018-Oct-30 12:55N 23°34' E 117°06'0 0.0
2018-Oct-30 12:28N 23°34' E 117°06'0 0.0
2018-Oct-30 11:58N 23°34' E 117°06'0 0.0
2018-Oct-30 11:28N 23°34' E 117°06'0 0.0
2018-Oct-30 10:58N 23°34' E 117°06'0 0.0
2018-Oct-30 10:28N 23°34' E 117°06'0 0.0
2018-Oct-30 10:01N 23°34' E 117°06'0 0.0
2018-Oct-30 09:58N 23°34' E 117°06'0 0.0
2018-Oct-30 09:31N 23°34' E 117°06'0 0.0
2018-Oct-30 09:01N 23°34' E 117°06'0 0.0
2018-Oct-30 08:58N 23°34' E 117°06'0 0.0
2018-Oct-30 08:28N 23°34' E 117°06'0 0.0
2018-Oct-30 07:58N 23°34' E 117°06'0 0.0
2018-Oct-30 07:28N 23°34' E 117°06'0 0.0
2018-Oct-30 07:01N 23°34' E 117°06'0 0.0
2018-Oct-30 06:58N 23°34' E 117°06'0 0.0
2018-Oct-30 06:28N 23°34' E 117°06'0 0.0
2018-Oct-30 06:00N 23°34' E 117°06'0 0.0
2018-Oct-30 05:21N 23°34' E 117°06'0 0.0
2018-Oct-30 05:01N 23°34' E 117°06'0 0.0
2018-Oct-30 04:28N 23°34' E 117°06'0 0.0
2018-Oct-30 04:03N 23°34' E 117°06'0 0.0
2018-Oct-30 03:55N 23°34' E 117°06'0 0.0
2018-Oct-30 03:28N 23°34' E 117°06'0 0.0
2018-Oct-30 03:01N 23°34' E 117°06'0 0.0
2018-Oct-30 02:58N 23°34' E 117°06'0 0.0
2018-Oct-30 02:28N 23°34' E 117°06'0 0.0
2018-Oct-30 02:01N 23°34' E 117°06'0 0.1
2018-Oct-30 01:58N 23°34' E 117°06'0 0.0
2018-Oct-30 01:22N 23°34' E 117°06'0 0.0
2018-Oct-30 01:01N 23°34' E 117°06'0 0.0
2018-Oct-30 00:31N 23°34' E 117°06'0 0.0
2018-Oct-30 00:01N 23°34' E 117°06'0 0.1
2018-Oct-29 23:55N 23°34' E 117°06'0 0.0
2018-Oct-29 23:28N 23°34' E 117°06'0 0.0
2018-Oct-29 23:01N 23°34' E 117°06'0 0.0
2018-Oct-29 22:58N 23°34' E 117°06'0 0.0
2018-Oct-29 22:27N 23°34' E 117°06'0 0.0
2018-Oct-29 22:01N 23°34' E 117°06'0 0.0
2018-Oct-29 21:57N 23°34' E 117°06'0 0.0
2018-Oct-29 21:28N 23°34' E 117°06'0 0.0
2018-Oct-29 21:01N 23°34' E 117°06'0 0.0
2018-Oct-29 20:31N 23°34' E 117°06'0 0.0
2018-Oct-29 19:58N 23°34' E 117°06'0 0.0
2018-Oct-29 19:28N 23°34' E 117°06'0 0.0
2018-Oct-29 19:01N 23°34' E 117°06'0 0.0
2018-Oct-29 18:31N 23°34' E 117°06'0 0.0
2018-Oct-29 18:01N 23°34' E 117°06'0 0.0
2018-Oct-29 17:30N 23°34' E 117°06'0 0.0
2018-Oct-29 17:01N 23°34' E 117°06'0 0.0
2018-Oct-29 16:58N 23°34' E 117°06'0 0.0
2018-Oct-29 16:27N 23°34' E 117°06'0 0.0
2018-Oct-29 16:03N 23°34' E 117°06'0 0.0
2018-Oct-29 16:01N 23°34' E 117°06'0 0.0
2018-Oct-29 15:30N 23°34' E 117°06'0 0.0
2018-Oct-29 15:03N 23°34' E 117°06'0 0.1
2018-Oct-29 15:01N 23°34' E 117°06'0 0.0
2018-Oct-29 14:30N 23°34' E 117°06'0 0.0
2018-Oct-29 14:00N 23°34' E 117°06'0 0.0
2018-Oct-29 13:30N 23°34' E 117°06'0 0.0
2018-Oct-29 13:00N 23°34' E 117°06'0 0.0
2018-Oct-29 12:28N 23°34' E 117°06'0 0.0
2018-Oct-29 12:03N 23°34' E 117°06'0 0.0
2018-Oct-29 12:00N 23°34' E 117°06'0 0.0
2018-Oct-29 11:30N 23°34' E 117°06'0 0.0
2018-Oct-29 11:03N 23°34' E 117°06'0 0.0
2018-Oct-29 10:55N 23°34' E 117°06'0 0.0
2018-Oct-29 10:30N 23°34' E 117°06'0 0.0
2018-Oct-29 10:04N 23°34' E 117°06'0 0.1
2018-Oct-29 10:00N 23°34' E 117°06'0 0.0
2018-Oct-29 09:30N 23°34' E 117°06'0 0.0
2018-Oct-29 09:03N 23°34' E 117°06'0 0.0
2018-Oct-29 09:00N 23°34' E 117°06'0 0.0
2018-Oct-29 08:30N 23°34' E 117°06'0 0.0
2018-Oct-29 08:03N 23°34' E 117°06'0 0.0
2018-Oct-29 08:00N 23°34' E 117°06'0 0.0
2018-Oct-29 07:30N 23°34' E 117°06'0 0.0
2018-Oct-29 07:04N 23°34' E 117°06'0 0.0
2018-Oct-29 07:00N 23°34' E 117°06'0 0.0
2018-Oct-29 06:31N 23°34' E 117°06'0 0.0
2018-Oct-29 06:03N 23°34' E 117°06'0 0.0
2018-Oct-29 05:57N 23°34' E 117°06'0 0.0
2018-Oct-29 05:30N 23°34' E 117°06'0 0.0
2018-Oct-29 05:03N 23°34' E 117°06'0 0.1
2018-Oct-29 05:01N 23°34' E 117°06'0 0.0
2018-Oct-29 04:30N 23°34' E 117°06'0 0.0
2018-Oct-29 04:03N 23°34' E 117°06'0 0.0
2018-Oct-29 04:00N 23°34' E 117°06'0 0.0
2018-Oct-29 03:30N 23°34' E 117°06'0 0.0
2018-Oct-29 03:03N 23°34' E 117°06'0 0.0
2018-Oct-29 03:00N 23°34' E 117°06'0 0.0
2018-Oct-29 02:30N 23°34' E 117°06'0 0.0
2018-Oct-29 02:00N 23°34' E 117°06'0 0.0
2018-Oct-29 01:30N 23°34' E 117°06'0 0.0
2018-Oct-29 01:03N 23°34' E 117°06'0 0.0
2018-Oct-29 01:00N 23°34' E 117°06'0 0.0
2018-Oct-29 00:30N 23°34' E 117°06'0 0.0
2018-Oct-29 00:00N 23°34' E 117°06'0 0.0
2018-Oct-28 23:30N 23°34' E 117°06'0 0.0
2018-Oct-28 23:03N 23°34' E 117°06'0 0.0
2018-Oct-28 23:00N 23°34' E 117°06'0 0.0
2018-Oct-28 22:30N 23°34' E 117°06'0 0.0
2018-Oct-28 22:03N 23°34' E 117°06'0 0.0
2018-Oct-28 21:57N 23°34' E 117°06'0 0.0
2018-Oct-28 21:24N 23°34' E 117°06'0 0.0
2018-Oct-28 21:03N 23°34' E 117°06'0 0.1
2018-Oct-28 20:57N 23°34' E 117°06'0 0.0
2018-Oct-28 20:30N 23°34' E 117°06'0 0.0
2018-Oct-28 20:03N 23°34' E 117°06'0 0.1
2018-Oct-28 20:00N 23°34' E 117°06'0 0.0
2018-Oct-28 19:30N 23°34' E 117°06'0 0.0
2018-Oct-28 19:00N 23°34' E 117°06'0 0.0
2018-Oct-28 18:27N 23°34' E 117°06'0 0.0
2018-Oct-28 17:57N 23°34' E 117°06'0 0.0
2018-Oct-28 17:30N 23°34' E 117°06'0 0.0
2018-Oct-28 17:03N 23°34' E 117°06'0 0.0
2018-Oct-28 17:00N 23°34' E 117°06'0 0.0
2018-Oct-28 16:30N 23°34' E 117°06'0 0.0
2018-Oct-28 16:03N 23°34' E 117°06'0 0.1
2018-Oct-28 16:00N 23°34' E 117°06'0 0.0
2018-Oct-28 15:30N 23°34' E 117°06'0 0.0
2018-Oct-28 15:03N 23°34' E 117°06'0 0.0
2018-Oct-28 14:54N 23°34' E 117°06'0 0.0
2018-Oct-28 14:30N 23°34' E 117°06'0 0.0
2018-Oct-28 14:00N 23°34' E 117°06'0 0.0
2018-Oct-28 13:30N 23°34' E 117°06'0 0.0
2018-Oct-28 13:03N 23°34' E 117°06'0 0.0
2018-Oct-28 13:00N 23°34' E 117°06'0 0.0
2018-Oct-28 12:30N 23°34' E 117°06'0 0.0
2018-Oct-28 12:03N 23°34' E 117°06'0 0.0
2018-Oct-28 12:00N 23°34' E 117°06'0 0.0
2018-Oct-28 11:30N 23°34' E 117°06'0 0.0
2018-Oct-28 11:00N 23°34' E 117°06'0 0.0
2018-Oct-28 10:27N 23°34' E 117°06'0 0.0
2018-Oct-28 10:03N 23°34' E 117°06'0 0.0
2018-Oct-28 10:00N 23°34' E 117°06'0 0.0
2018-Oct-28 09:30N 23°34' E 117°06'0 0.0
2018-Oct-28 09:00N 23°34' E 117°06'0 0.0
2018-Oct-28 08:27N 23°34' E 117°06'0 0.0
2018-Oct-28 08:03N 23°34' E 117°06'0 0.0
2018-Oct-28 07:54N 23°34' E 117°06'0 0.0
2018-Oct-28 07:27N 23°34' E 117°06'0 0.0
2018-Oct-28 07:03N 23°34' E 117°06'0 0.0
2018-Oct-28 07:00N 23°34' E 117°06'0 0.0
2018-Oct-28 06:30N 23°34' E 117°06'0 0.0
2018-Oct-28 06:00N 23°34' E 117°06'0 0.0
2018-Oct-28 05:30N 23°34' E 117°06'0 0.0
2018-Oct-28 05:03N 23°34' E 117°06'0 0.1
2018-Oct-28 04:57N 23°34' E 117°06'0 0.0
2018-Oct-28 04:30N 23°34' E 117°06'0 0.0
2018-Oct-28 03:57N 23°34' E 117°06'0 0.0
2018-Oct-28 03:30N 23°34' E 117°06'0 0.0
2018-Oct-28 03:03N 23°34' E 117°06'0 0.0
2018-Oct-28 02:57N 23°34' E 117°06'0 0.0
2018-Oct-28 02:30N 23°34' E 117°06'0 0.0
2018-Oct-28 02:03N 23°34' E 117°06'0 0.1
2018-Oct-28 02:00N 23°34' E 117°06'0 0.0
2018-Oct-28 01:30N 23°34' E 117°06'0 0.0
2018-Oct-28 01:03N 23°34' E 117°06'0 0.0
2018-Oct-28 01:00N 23°34' E 117°06'0 0.0
2018-Oct-28 00:30N 23°34' E 117°06'0 0.0
2018-Oct-28 00:03N 23°34' E 117°06'0 0.0
2018-Oct-27 23:57N 23°34' E 117°06'0 0.0
2018-Oct-27 23:30N 23°34' E 117°06'0 0.0
2018-Oct-27 22:57N 23°34' E 117°06'0 0.0
2018-Oct-27 22:30N 23°34' E 117°06'0 0.0
2018-Oct-27 22:03N 23°34' E 117°06'0 0.1
2018-Oct-27 22:00N 23°34' E 117°06'0 0.0
2018-Oct-27 21:30N 23°34' E 117°06'0 0.0
2018-Oct-27 21:03N 23°34' E 117°06'0 0.1
2018-Oct-27 21:00N 23°34' E 117°06'0 0.0
2018-Oct-27 20:27N 23°34' E 117°06'0 0.0
2018-Oct-27 20:00N 23°34' E 117°06'0 0.0
2018-Oct-27 19:30N 23°34' E 117°06'0 0.0
2018-Oct-27 19:03N 23°34' E 117°06'0 0.0
2018-Oct-27 18:57N 23°34' E 117°06'0 0.0
2018-Oct-27 18:30N 23°34' E 117°06'0 0.0
2018-Oct-27 18:00N 23°34' E 117°06'0 0.0
2018-Oct-27 17:30N 23°34' E 117°06'0 0.0
2018-Oct-27 17:03N 23°34' E 117°06'0 0.0
2018-Oct-27 17:00N 23°34' E 117°06'0 0.0
2018-Oct-27 16:21N 23°34' E 117°06'0 0.0
2018-Oct-27 16:03N 23°34' E 117°06'0 0.0
2018-Oct-27 15:54N 23°34' E 117°06'0 0.0
2018-Oct-27 15:30N 23°34' E 117°06'0 0.0
2018-Oct-27 15:00N 23°34' E 117°06'0 0.0
2018-Oct-27 14:30N 23°34' E 117°06'0 0.0
2018-Oct-27 14:00N 23°34' E 117°06'0 0.0
2018-Oct-27 13:27N 23°34' E 117°06'0 0.0
2018-Oct-27 13:03N 23°34' E 117°06'0 0.0
2018-Oct-27 13:00N 23°34' E 117°06'0 0.0
2018-Oct-27 12:27N 23°34' E 117°06'0 0.0
2018-Oct-27 12:00N 23°34' E 117°06'0 0.0
2018-Oct-27 11:24N 23°34' E 117°06'0 0.0
2018-Oct-27 11:03N 23°34' E 117°06'0 0.0
2018-Oct-27 11:00N 23°34' E 117°06'0 0.0
2018-Oct-27 10:27N 23°34' E 117°06'0 0.0
2018-Oct-27 09:57N 23°34' E 117°06'0 0.0
2018-Oct-27 09:30N 23°34' E 117°06'0 0.0
2018-Oct-27 09:03N 23°34' E 117°06'0 0.1
2018-Oct-27 09:00N 23°34' E 117°06'0 0.0
2018-Oct-27 08:27N 23°34' E 117°06'0 0.0
2018-Oct-27 08:03N 23°34' E 117°06'0 0.0
2018-Oct-27 07:57N 23°34' E 117°06'0 0.0
2018-Oct-27 07:30N 23°34' E 117°06'0 0.0
2018-Oct-27 07:03N 23°34' E 117°06'0 0.1
2018-Oct-27 06:57N 23°34' E 117°06'0 0.0
2018-Oct-27 06:30N 23°34' E 117°06'0 0.0
2018-Oct-27 06:03N 23°34' E 117°06'0 0.1
2018-Oct-27 05:57N 23°34' E 117°06'0 0.0
2018-Oct-27 05:30N 23°34' E 117°06'0 0.0
2018-Oct-27 05:03N 23°34' E 117°06'0 0.1
2018-Oct-27 05:00N 23°34' E 117°06'0 0.0
2018-Oct-27 04:30N 23°34' E 117°06'0 0.0
2018-Oct-27 04:03N 23°34' E 117°06'0 0.0
2018-Oct-27 03:57N 23°34' E 117°06'0 0.0
2018-Oct-27 03:30N 23°34' E 117°06'0 0.0
2018-Oct-27 03:00N 23°34' E 117°06'0 0.0
2018-Oct-27 02:30N 23°34' E 117°06'0 0.0
2018-Oct-27 02:03N 23°34' E 117°06'0 0.0
2018-Oct-27 01:57N 23°34' E 117°06'0 0.0
2018-Oct-27 01:30N 23°34' E 117°06'0 0.0
2018-Oct-27 01:03N 23°34' E 117°06'0 0.1
2018-Oct-27 01:00N 23°34' E 117°06'0 0.0
2018-Oct-27 00:27N 23°34' E 117°06'0 0.0
2018-Oct-27 00:00N 23°34' E 117°06'0 0.0
2018-Oct-26 23:30N 23°34' E 117°06'0 0.0
2018-Oct-26 22:54N 23°34' E 117°06'0 0.0
2018-Oct-26 22:24N 23°34' E 117°06'0 0.0
2018-Oct-26 22:00N 23°34' E 117°06'0 0.0
2018-Oct-26 21:30N 23°34' E 117°06'0 0.0
2018-Oct-26 21:03N 23°34' E 117°06'0 0.0
2018-Oct-26 21:00N 23°34' E 117°06'0 0.0
2018-Oct-26 20:30N 23°34' E 117°06'0 0.0
2018-Oct-26 20:03N 23°34' E 117°06'0 0.0
2018-Oct-26 20:00N 23°34' E 117°06'0 0.0
2018-Oct-26 19:30N 23°34' E 117°06'0 0.0
2018-Oct-26 19:03N 23°34' E 117°06'0 0.0
2018-Oct-26 19:00N 23°34' E 117°06'0 0.0
2018-Oct-26 18:30N 23°34' E 117°06'0 0.0
2018-Oct-26 18:03N 23°34' E 117°06'0 0.0
2018-Oct-26 18:00N 23°34' E 117°06'0 0.0
2018-Oct-26 17:27N 23°34' E 117°06'0 0.0
2018-Oct-26 17:01N 23°34' E 117°06'0 0.0
2018-Oct-26 16:57N 23°34' E 117°06'0 0.0
2018-Oct-26 16:30N 23°34' E 117°06'0 0.0
2018-Oct-26 16:03N 23°34' E 117°06'0 0.0
2018-Oct-26 15:54N 23°34' E 117°06'0 0.0
2018-Oct-26 15:30N 23°34' E 117°06'0 0.0
2018-Oct-26 15:00N 23°34' E 117°06'0 0.0
2018-Oct-26 14:27N 23°34' E 117°06'0 0.0
2018-Oct-26 13:57N 23°34' E 117°06'0 0.0
2018-Oct-26 13:27N 23°34' E 117°06'0 0.0
2018-Oct-26 13:03N 23°34' E 117°06'0 0.0
2018-Oct-26 12:57N 23°34' E 117°06'0 0.0
2018-Oct-26 12:30N 23°34' E 117°06'0 0.0
2018-Oct-26 11:57N 23°34' E 117°06'0 0.0
2018-Oct-26 11:24N 23°34' E 117°06'0 0.0
2018-Oct-26 11:03N 23°34' E 117°06'0 0.0
2018-Oct-26 11:00N 23°34' E 117°06'0 0.0
2018-Oct-26 10:30N 23°34' E 117°06'0 0.0
2018-Oct-26 10:00N 23°34' E 117°06'0 0.0
2018-Oct-26 09:30N 23°34' E 117°06'0 0.0
2018-Oct-26 08:57N 23°34' E 117°06'0 0.0
2018-Oct-26 08:30N 23°34' E 117°06'0 0.0
2018-Oct-26 08:03N 23°34' E 117°06'0 0.0
2018-Oct-26 08:00N 23°34' E 117°06'0 0.0
2018-Oct-26 07:30N 23°34' E 117°06'0 0.0
2018-Oct-26 07:03N 23°34' E 117°06'0 0.0
2018-Oct-26 06:57N 23°34' E 117°06'0 0.0
2018-Oct-26 06:30N 23°34' E 117°06'0 0.0
2018-Oct-26 06:03N 23°34' E 117°06'0 0.0
2018-Oct-26 06:00N 23°34' E 117°06'0 0.0
2018-Oct-26 05:30N 23°34' E 117°06'0 0.4
2018-Oct-26 05:03N 23°34' E 117°06'0 1.1
2018-Oct-26 05:00N 23°34' E 117°06'2 4.2
2018-Oct-26 04:30N 23°32' E 117°08'2 4.7
2018-Oct-26 04:03N 23°30' E 117°09'0 4.3
2018-Oct-26 04:00N 23°30' E 117°09'2 4.5
2018-Oct-26 03:30N 23°29' E 117°11'3 6.1
2018-Oct-26 03:03N 23°27' E 117°13'0 5.7
2018-Oct-26 03:00N 23°27' E 117°14'2 4.1
2018-Oct-26 02:30N 23°27' E 117°16'1 3.3
2018-Oct-26 02:03N 23°27' E 117°17'0 2.2
2018-Oct-26 02:00N 23°27' E 117°17'1 1.9
2018-Oct-26 01:30N 23°28' E 117°18'0 0.2
2018-Oct-26 01:01N 23°27' E 117°19'0 0.1
2018-Oct-26 00:58N 23°27' E 117°19'0 0.0
2018-Oct-26 00:28N 23°27' E 117°19'0 0.0
2018-Oct-26 00:01N 23°27' E 117°19'0 0.0
2018-Oct-25 23:58N 23°27' E 117°19'0 0.1
2018-Oct-25 23:28N 23°27' E 117°19'0 0.4
2018-Oct-25 23:02N 23°27' E 117°18'0 0.4
2018-Oct-25 22:52N 23°27' E 117°18'0 0.0
2018-Oct-25 22:25N 23°27' E 117°18'0 0.1
2018-Oct-25 22:01N 23°27' E 117°18'0 0.0
2018-Oct-25 21:58N 23°27' E 117°18'0 0.0
2018-Oct-25 21:28N 23°27' E 117°18'0 0.0
2018-Oct-25 21:01N 23°27' E 117°18'0 0.0
2018-Oct-25 20:49N 23°27' E 117°18'0 0.0
2018-Oct-25 20:28N 23°27' E 117°18'0 0.0
2018-Oct-25 20:01N 23°27' E 117°18'0 0.0
2018-Oct-25 19:58N 23°27' E 117°18'0 0.0
2018-Oct-25 19:28N 23°27' E 117°18'0 0.0
2018-Oct-25 19:01N 23°27' E 117°18'0 0.1
2018-Oct-25 18:58N 23°27' E 117°18'0 0.1
2018-Oct-25 18:28N 23°27' E 117°18'0 0.0
2018-Oct-25 17:52N 23°27' E 117°18'0 0.3
2018-Oct-25 17:25N 23°27' E 117°18'0 0.3
2018-Oct-25 17:01N 23°27' E 117°18'0 0.1
2018-Oct-25 16:58N 23°27' E 117°18'0 0.1
2018-Oct-25 16:28N 23°27' E 117°19'0 0.0
2018-Oct-25 16:01N 23°27' E 117°19'0 0.0
2018-Oct-25 15:52N 23°27' E 117°19'0 0.0
2018-Oct-25 15:28N 23°27' E 117°19'0 0.0
2018-Oct-25 14:55N 23°27' E 117°19'0 0.0
2018-Oct-25 14:22N 23°27' E 117°19'0 0.0
2018-Oct-25 13:58N 23°27' E 117°19'0 0.0
2018-Oct-25 13:28N 23°27' E 117°19'0 0.0
2018-Oct-25 13:01N 23°27' E 117°19'0 0.0
2018-Oct-25 12:52N 23°27' E 117°19'0 0.0
2018-Oct-25 12:25N 23°27' E 117°19'0 0.0
2018-Oct-25 12:01N 23°27' E 117°19'0 0.0
2018-Oct-25 11:55N 23°27' E 117°19'0 0.2
2018-Oct-25 11:20N 23°27' E 117°18'0 0.4
2018-Oct-25 11:01N 23°27' E 117°18'0 0.2
2018-Oct-25 10:55N 23°27' E 117°18'0 0.2
2018-Oct-25 10:28N 23°27' E 117°18'0 0.1
2018-Oct-25 09:58N 23°27' E 117°18'0 0.0
2018-Oct-25 09:28N 23°27' E 117°18'0 0.0
2018-Oct-25 09:01N 23°27' E 117°18'0 0.1
2018-Oct-25 08:55N 23°27' E 117°18'0 0.0
2018-Oct-25 08:25N 23°27' E 117°18'0 0.0
2018-Oct-25 08:01N 23°27' E 117°18'0 0.0
2018-Oct-25 07:52N 23°27' E 117°18'0 0.0
2018-Oct-25 07:25N 23°27' E 117°18'0 0.0
2018-Oct-25 07:01N 23°27' E 117°18'0 0.1
2018-Oct-25 06:55N 23°27' E 117°18'0 0.0
2018-Oct-25 06:25N 23°27' E 117°18'0 0.0
2018-Oct-25 06:01N 23°27' E 117°18'0 0.6
2018-Oct-25 05:55N 23°27' E 117°18'0 0.0
2018-Oct-25 05:26N 23°27' E 117°18'0 0.1
2018-Oct-25 05:01N 23°27' E 117°18'0 0.6
2018-Oct-25 04:55N 23°27' E 117°18'0 0.3
2018-Oct-25 04:28N 23°27' E 117°18'0 0.1
2018-Oct-25 04:01N 23°27' E 117°18'0 0.1
2018-Oct-25 03:58N 23°27' E 117°18'0 0.1
2018-Oct-25 03:28N 23°27' E 117°19'0 0.0
2018-Oct-25 03:01N 23°27' E 117°19'0 0.0
2018-Oct-25 02:58N 23°27' E 117°19'0 0.0
2018-Oct-25 02:28N 23°27' E 117°19'0 0.0
2018-Oct-25 02:01N 23°27' E 117°19'0 0.0
2018-Oct-25 01:58N 23°27' E 117°19'0 0.0
2018-Oct-25 01:28N 23°27' E 117°19'0 0.0
2018-Oct-25 01:01N 23°27' E 117°19'0 0.1
2018-Oct-25 00:58N 23°27' E 117°19'0 0.0
2018-Oct-25 00:28N 23°27' E 117°19'0 0.0
2018-Oct-25 00:01N 23°27' E 117°19'0 0.1
2018-Oct-24 23:58N 23°27' E 117°19'0 0.3
2018-Oct-24 23:19N 23°27' E 117°18'0 0.3
2018-Oct-24 22:49N 23°27' E 117°18'0 0.1
2018-Oct-24 22:28N 23°27' E 117°18'0 0.1
2018-Oct-24 22:01N 23°27' E 117°18'0 0.1
2018-Oct-24 21:43N 23°27' E 117°18'0 0.0
2018-Oct-24 21:28N 23°27' E 117°18'0 0.1
2018-Oct-24 20:55N 23°27' E 117°18'0 0.0
2018-Oct-24 20:28N 23°27' E 117°18'0 0.0
2018-Oct-24 19:52N 23°27' E 117°18'0 0.0
2018-Oct-24 19:28N 23°27' E 117°18'0 0.0
2018-Oct-24 19:01N 23°27' E 117°18'0 0.1
2018-Oct-24 18:22N 23°27' E 117°18'0 0.0
2018-Oct-24 17:49N 23°27' E 117°18'0 0.0
2018-Oct-24 17:25N 23°27' E 117°18'0 0.0
2018-Oct-24 16:58N 23°27' E 117°18'0 0.0
2018-Oct-24 16:25N 23°27' E 117°18'0 0.2
2018-Oct-24 16:01N 23°27' E 117°18'0 0.6
2018-Oct-24 15:55N 23°27' E 117°18'0 0.2
2018-Oct-24 15:28N 23°27' E 117°18'0 0.2
2018-Oct-24 14:55N 23°27' E 117°19'0 0.0
2018-Oct-24 14:28N 23°27' E 117°19'0 0.0
2018-Oct-24 14:01N 23°27' E 117°19'0 0.0
2018-Oct-24 13:52N 23°27' E 117°19'0 0.0
2018-Oct-24 13:28N 23°27' E 117°19'0 0.0
2018-Oct-24 13:01N 23°27' E 117°19'0 0.0
2018-Oct-24 12:58N 23°27' E 117°19'0 0.0
2018-Oct-24 12:25N 23°27' E 117°19'0 0.1
2018-Oct-24 12:01N 23°27' E 117°18'0 0.1
2018-Oct-24 11:58N 23°27' E 117°18'0 0.2
2018-Oct-24 11:25N 23°27' E 117°18'0 0.2
2018-Oct-24 10:37N 23°27' E 117°18'0 0.1
2018-Oct-24 10:19N 23°27' E 117°18'0 0.1
2018-Oct-24 10:01N 23°27' E 117°18'0 0.1
2018-Oct-24 09:55N 23°27' E 117°18'0 0.1
2018-Oct-24 09:22N 23°27' E 117°18'0 0.1
2018-Oct-24 09:01N 23°27' E 117°18'0 0.0
2018-Oct-24 08:49N 23°27' E 117°18'0 0.0
2018-Oct-24 08:28N 23°27' E 117°18'0 0.1
2018-Oct-24 07:58N 23°27' E 117°18'0 0.0
2018-Oct-24 07:16N 23°27' E 117°18'0 0.2
2018-Oct-24 07:01N 23°27' E 117°18'0 0.0
2018-Oct-24 06:52N 23°27' E 117°18'0 0.0
2018-Oct-24 06:25N 23°27' E 117°18'0 0.0
2018-Oct-24 05:28N 23°27' E 117°18'0 0.1
2018-Oct-24 04:58N 23°27' E 117°18'0 0.0
2018-Oct-24 04:28N 23°27' E 117°18'0 0.0
2018-Oct-24 03:52N 23°27' E 117°18'0 0.3
2018-Oct-24 03:28N 23°27' E 117°18'0 0.2
2018-Oct-24 02:58N 23°27' E 117°18'0 0.1
2018-Oct-24 02:28N 23°27' E 117°19'0 0.0
2018-Oct-24 02:01N 23°27' E 117°19'0 0.1
2018-Oct-24 01:58N 23°27' E 117°19'0 0.0
2018-Oct-24 01:28N 23°27' E 117°19'0 0.0
2018-Oct-24 01:01N 23°27' E 117°19'0 0.0
2018-Oct-24 00:58N 23°27' E 117°19'0 0.0
2018-Oct-24 00:28N 23°27' E 117°19'0 0.1
2018-Oct-24 00:01N 23°27' E 117°18'0 0.0
2018-Oct-23 23:58N 23°27' E 117°18'0 0.2
2018-Oct-23 23:28N 23°27' E 117°18'0 0.2
2018-Oct-23 22:55N 23°27' E 117°18'0 0.1
2018-Oct-23 22:28N 23°27' E 117°18'0 0.1
2018-Oct-23 22:01N 23°27' E 117°18'0 0.0
2018-Oct-23 21:58N 23°27' E 117°18'0 0.0
2018-Oct-23 21:28N 23°27' E 117°18'0 0.0
2018-Oct-23 21:01N 23°27' E 117°18'0 0.0
2018-Oct-23 20:58N 23°27' E 117°18'0 0.0
2018-Oct-23 20:28N 23°27' E 117°18'0 0.0
2018-Oct-23 19:58N 23°27' E 117°18'0 0.0
2018-Oct-23 19:28N 23°27' E 117°18'0 0.0
2018-Oct-23 18:55N 23°27' E 117°18'0 0.0
2018-Oct-23 18:28N 23°27' E 117°18'0 0.0
2018-Oct-23 18:01N 23°27' E 117°18'0 0.0
2018-Oct-23 17:58N 23°27' E 117°18'0 0.0
2018-Oct-23 17:28N 23°27' E 117°18'0 0.0
2018-Oct-23 17:01N 23°27' E 117°18'0 0.0
2018-Oct-23 16:58N 23°27' E 117°18'0 0.0
2018-Oct-23 16:28N 23°27' E 117°18'0 0.0
2018-Oct-23 16:01N 23°27' E 117°18'0 0.0
2018-Oct-23 15:58N 23°27' E 117°18'0 0.2
2018-Oct-23 15:16N 23°27' E 117°18'0 0.2
2018-Oct-23 15:01N 23°27' E 117°18'0 1.1
2018-Oct-23 14:58N 23°27' E 117°18'0 0.1
2018-Oct-23 13:52N 23°27' E 117°19'0 0.0
2018-Oct-23 13:25N 23°27' E 117°19'0 0.0
2018-Oct-23 13:01N 23°27' E 117°19'0 0.0
2018-Oct-23 12:58N 23°27' E 117°19'0 0.0
2018-Oct-23 12:28N 23°27' E 117°19'0 0.0
2018-Oct-23 12:01N 23°27' E 117°19'0 0.1
2018-Oct-23 11:58N 23°27' E 117°19'0 0.1
2018-Oct-23 11:28N 23°27' E 117°18'0 0.1
2018-Oct-23 11:01N 23°27' E 117°18'0 0.1
2018-Oct-23 10:55N 23°27' E 117°18'0 0.1
2018-Oct-23 10:28N 23°27' E 117°18'0 0.2
2018-Oct-23 10:01N 23°27' E 117°18'0 0.6
2018-Oct-23 09:55N 23°27' E 117°18'0 0.1
2018-Oct-23 09:28N 23°27' E 117°18'0 0.1
2018-Oct-23 08:55N 23°27' E 117°18'0 0.0
2018-Oct-23 08:28N 23°27' E 117°18'0 0.0
2018-Oct-23 07:55N 23°27' E 117°18'0 0.0
2018-Oct-23 07:28N 23°27' E 117°18'0 0.0
2018-Oct-23 07:01N 23°27' E 117°18'0 0.0
2018-Oct-23 06:58N 23°27' E 117°18'0 0.0
2018-Oct-23 06:25N 23°27' E 117°18'0 0.0
2018-Oct-23 05:58N 23°27' E 117°18'0 0.0
2018-Oct-23 05:28N 23°27' E 117°18'0 0.1
2018-Oct-23 05:01N 23°27' E 117°18'0 0.1
2018-Oct-23 04:58N 23°27' E 117°18'0 0.0
2018-Oct-23 04:22N 23°27' E 117°18'0 0.3
2018-Oct-23 03:55N 23°27' E 117°18'0 0.3
2018-Oct-23 03:28N 23°27' E 117°18'0 0.1
2018-Oct-23 03:01N 23°27' E 117°18'0 0.1
2018-Oct-23 02:58N 23°27' E 117°18'0 0.0
2018-Oct-23 02:28N 23°27' E 117°18'0 0.1
2018-Oct-23 01:55N 23°27' E 117°19'0 0.0
2018-Oct-23 01:28N 23°27' E 117°19'0 0.0
2018-Oct-23 01:04N 23°27' E 117°19'0 0.0
2018-Oct-23 00:58N 23°27' E 117°19'0 0.0
2018-Oct-23 00:28N 23°27' E 117°19'0 0.0
2018-Oct-23 00:01N 23°27' E 117°19'0 0.0
2018-Oct-22 23:55N 23°27' E 117°19'0 0.0
2018-Oct-22 23:25N 23°27' E 117°19'0 0.0
2018-Oct-22 23:01N 23°27' E 117°19'0 0.1
2018-Oct-22 22:55N 23°27' E 117°19'0 0.1
2018-Oct-22 22:28N 23°27' E 117°18'0 0.1
2018-Oct-22 22:01N 23°27' E 117°18'0 0.4
2018-Oct-22 21:58N 23°27' E 117°18'0 0.3
2018-Oct-22 21:19N 23°27' E 117°18'0 0.2
2018-Oct-22 21:01N 23°27' E 117°18'0 0.0
2018-Oct-22 20:58N 23°27' E 117°18'0 0.0
2018-Oct-22 20:28N 23°27' E 117°18'0 0.0
2018-Oct-22 19:58N 23°27' E 117°18'0 0.0
2018-Oct-22 19:28N 23°27' E 117°18'0 0.0
2018-Oct-22 18:58N 23°27' E 117°18'0 0.1
2018-Oct-22 18:28N 23°27' E 117°18'0 0.0
2018-Oct-22 18:01N 23°27' E 117°18'0 0.0
2018-Oct-22 17:58N 23°27' E 117°18'0 0.0
2018-Oct-22 17:28N 23°27' E 117°18'  
Track history (hours):
 
Tides and Currents Weather Stations Pressure Air Temp Water Temp Dewpoint Dewpoint Depression Visibility Wind Speed Wind Dir Waves Ship Positions

Vittoria

Last reported at 2018-Nov-01 17:25 UTC. Time now 2018-Nov-17 19:03 UTC.
Position N 24°19' E 118°54'.
Warning: this ship's position is 16 days out of date.

Length 211 m; draft 6.8 m.

Type: Cargo ship. MMSI: 354314000.

Date/timePositionNaut miles runAvg speedWind from/ knotsBaromVisibWave heightAir tempDewpointWater temp
2018-Nov-01 17:25N 24°19' E 118°54'2 4.6
2018-Nov-01 17:02N 24°18' E 118°53'3 3.8
2018-Nov-01 16:16N 24°17' E 118°50'1 3.8
2018-Nov-01 15:59N 24°16' E 118°49'11 3.4
2018-Nov-01 12:42N 24°09' E 118°39'2 3.2
2018-Nov-01 12:13N 24°08' E 118°38'1 2.9
2018-Nov-01 12:00N 24°08' E 118°37'1 2.7
2018-Nov-01 11:28N 24°07' E 118°36'4 2.4
2018-Nov-01 09:57N 24°05' E 118°33'3 2.4
2018-Nov-01 08:51N 24°03' E 118°30'1 2.3
2018-Nov-01 08:29N 24°03' E 118°30'1 2.6
2018-Nov-01 08:03N 24°02' E 118°28'0 2.9
2018-Nov-01 07:55N 24°02' E 118°28'1 2.7
2018-Nov-01 07:30N 24°01' E 118°27'2 3.3
2018-Nov-01 07:03N 24°00' E 118°26'0 3.4
2018-Nov-01 07:00N 24°00' E 118°26'2 3.3
2018-Nov-01 06:30N 23°59' E 118°24'2 3.6
2018-Nov-01 05:59N 23°58' E 118°23'3 3.7
2018-Nov-01 05:09N 23°56' E 118°21'1 2.7
2018-Nov-01 04:48N 23°55' E 118°20'7 2.2
2018-Nov-01 01:30N 23°50' E 118°14'5 2.0
2018-Oct-31 22:45N 23°46' E 118°10'13 3.2
2018-Oct-31 18:36N 23°38' E 117°58'3 3.8
2018-Oct-31 17:49N 23°37' E 117°56'1 3.4
2018-Oct-31 17:29N 23°36' E 117°54'2 4.1
2018-Oct-31 17:03N 23°35' E 117°53'0 3.8
2018-Oct-31 17:00N 23°35' E 117°53'2 3.6
2018-Oct-31 16:30N 23°34' E 117°51'2 3.8
2018-Oct-31 16:03N 23°33' E 117°50'0 4.2
2018-Oct-31 16:00N 23°33' E 117°50'2 4.5
2018-Oct-31 15:30N 23°32' E 117°48'2 4.3
2018-Oct-31 15:03N 23°31' E 117°46'0 4.2
2018-Oct-31 15:00N 23°30' E 117°46'2 3.8
2018-Oct-31 14:30N 23°29' E 117°44'2 3.4
2018-Oct-31 14:00N 23°29' E 117°42'2 3.1
2018-Oct-31 13:30N 23°29' E 117°40'1 3.3
2018-Oct-31 13:03N 23°29' E 117°39'0 4.2
2018-Oct-31 13:00N 23°29' E 117°39'2 3.5
2018-Oct-31 12:30N 23°28' E 117°37'2 3.8
2018-Oct-31 12:03N 23°28' E 117°35'0 4.4
2018-Oct-31 12:00N 23°28' E 117°35'2 4.3
2018-Oct-31 11:30N 23°28' E 117°32'2 4.0
2018-Oct-31 11:03N 23°28' E 117°30'0 3.3
2018-Oct-31 11:00N 23°28' E 117°30'2 4.3
2018-Oct-31 10:30N 23°28' E 117°28'2 3.7
2018-Oct-31 10:03N 23°27' E 117°26'0 3.0
2018-Oct-31 10:00N 23°26' E 117°26'2 3.4
2018-Oct-31 09:30N 23°26' E 117°24'2 4.4
2018-Oct-31 09:03N 23°26' E 117°22'0 5.2
2018-Oct-31 09:00N 23°26' E 117°22'3 5.4
2018-Oct-31 08:30N 23°26' E 117°19'3 5.7
2018-Oct-31 08:03N 23°26' E 117°16'0 7.7
2018-Oct-31 08:00N 23°26' E 117°16'4 7.4
2018-Oct-31 07:30N 23°27' E 117°12'4 8.0
2018-Oct-31 07:03N 23°30' E 117°09'0 8.1
2018-Oct-31 07:00N 23°30' E 117°09'4 7.5
2018-Oct-31 06:30N 23°33' E 117°06'1 1.9
2018-Oct-31 06:03N 23°34' E 117°06'0 0.0
2018-Oct-31 06:00N 23°34' E 117°06'0 0.0
2018-Oct-31 05:25N 23°34' E 117°06'0 0.0
2018-Oct-31 04:58N 23°34' E 117°06'0 0.0
2018-Oct-31 04:28N 23°34' E 117°06'0 0.0
2018-Oct-31 04:01N 23°34' E 117°06'0 0.0
2018-Oct-31 03:58N 23°34' E 117°06'0 0.0
2018-Oct-31 03:28N 23°34' E 117°06'0 0.0
2018-Oct-31 02:58N 23°34' E 117°06'0 0.0
2018-Oct-31 02:25N 23°34' E 117°06'0 0.0
2018-Oct-31 02:01N 23°34' E 117°06'0 0.1
2018-Oct-31 01:58N 23°34' E 117°06'0 0.0
2018-Oct-31 01:28N 23°34' E 117°06'0 0.0
2018-Oct-31 01:01N 23°34' E 117°06'0 0.1
2018-Oct-31 00:58N 23°34' E 117°06'0 0.0
2018-Oct-31 00:28N 23°34' E 117°06'0 0.0
2018-Oct-31 00:01N 23°34' E 117°06'0 0.1
2018-Oct-30 23:58N 23°34' E 117°06'0 0.0
2018-Oct-30 23:28N 23°34' E 117°06'0 0.0
2018-Oct-30 23:01N 23°34' E 117°06'0 0.0
2018-Oct-30 22:58N 23°34' E 117°06'0 0.0
2018-Oct-30 22:25N 23°34' E 117°06'0 0.0
2018-Oct-30 22:01N 23°34' E 117°06'0 0.0
2018-Oct-30 21:58N 23°34' E 117°06'0 0.0
2018-Oct-30 21:28N 23°34' E 117°06'0 0.0
2018-Oct-30 21:01N 23°34' E 117°06'0 0.0
2018-Oct-30 20:58N 23°34' E 117°06'0 0.0
2018-Oct-30 20:28N 23°34' E 117°06'0 0.0
2018-Oct-30 20:01N 23°34' E 117°06'0 0.1
2018-Oct-30 19:58N 23°34' E 117°06'0 0.0
2018-Oct-30 19:28N 23°34' E 117°06'0 0.0
2018-Oct-30 19:01N 23°34' E 117°06'0 0.1
2018-Oct-30 18:58N 23°34' E 117°06'0 0.0
2018-Oct-30 18:28N 23°34' E 117°06'0 0.0
2018-Oct-30 18:01N 23°34' E 117°06'0 0.1
2018-Oct-30 17:58N 23°34' E 117°06'0 0.0
2018-Oct-30 17:28N 23°34' E 117°06'0 0.0
2018-Oct-30 16:58N 23°34' E 117°06'0 0.0
2018-Oct-30 16:28N 23°34' E 117°06'0 0.0
2018-Oct-30 16:01N 23°34' E 117°06'0 0.0
2018-Oct-30 15:58N 23°34' E 117°06'0 0.0
2018-Oct-30 15:28N 23°34' E 117°06'0 0.0
2018-Oct-30 15:01N 23°34' E 117°06'0 0.0
2018-Oct-30 14:55N 23°34' E 117°06'0 0.0
2018-Oct-30 14:01N 23°34' E 117°06'0 0.0
2018-Oct-30 13:31N 23°34' E 117°06'0 0.0
2018-Oct-30 13:01N 23°34' E 117°06'0 0.1
2018-Oct-30 12:55N 23°34' E 117°06'0 0.0
2018-Oct-30 12:28N 23°34' E 117°06'0 0.0
2018-Oct-30 11:58N 23°34' E 117°06'0 0.0
2018-Oct-30 11:28N 23°34' E 117°06'0 0.0
2018-Oct-30 10:58N 23°34' E 117°06'0 0.0
2018-Oct-30 10:28N 23°34' E 117°06'0 0.0
2018-Oct-30 10:01N 23°34' E 117°06'0 0.0
2018-Oct-30 09:58N 23°34' E 117°06'0 0.0
2018-Oct-30 09:31N 23°34' E 117°06'0 0.0
2018-Oct-30 09:01N 23°34' E 117°06'0 0.0
2018-Oct-30 08:58N 23°34' E 117°06'0 0.0
2018-Oct-30 08:28N 23°34' E 117°06'0 0.0
2018-Oct-30 07:58N 23°34' E 117°06'0 0.0
2018-Oct-30 07:28N 23°34' E 117°06'0 0.0
2018-Oct-30 07:01N 23°34' E 117°06'0 0.0
2018-Oct-30 06:58N 23°34' E 117°06'0 0.0
2018-Oct-30 06:28N 23°34' E 117°06'0 0.0
2018-Oct-30 06:00N 23°34' E 117°06'0 0.0
2018-Oct-30 05:21N 23°34' E 117°06'0 0.0
2018-Oct-30 05:01N 23°34' E 117°06'0 0.0
2018-Oct-30 04:28N 23°34' E 117°06'0 0.0
2018-Oct-30 04:03N 23°34' E 117°06'0 0.0
2018-Oct-30 03:55N 23°34' E 117°06'0 0.0
2018-Oct-30 03:28N 23°34' E 117°06'0 0.0
2018-Oct-30 03:01N 23°34' E 117°06'0 0.0
2018-Oct-30 02:58N 23°34' E 117°06'0 0.0
2018-Oct-30 02:28N 23°34' E 117°06'0 0.0
2018-Oct-30 02:01N 23°34' E 117°06'0 0.1
2018-Oct-30 01:58N 23°34' E 117°06'0 0.0
2018-Oct-30 01:22N 23°34' E 117°06'0 0.0
2018-Oct-30 01:01N 23°34' E 117°06'0 0.0
2018-Oct-30 00:31N 23°34' E 117°06'0 0.0
2018-Oct-30 00:01N 23°34' E 117°06'0 0.1
2018-Oct-29 23:55N 23°34' E 117°06'0 0.0
2018-Oct-29 23:28N 23°34' E 117°06'0 0.0
2018-Oct-29 23:01N 23°34' E 117°06'0 0.0
2018-Oct-29 22:58N 23°34' E 117°06'0 0.0
2018-Oct-29 22:27N 23°34' E 117°06'0 0.0
2018-Oct-29 22:01N 23°34' E 117°06'0 0.0
2018-Oct-29 21:57N 23°34' E 117°06'0 0.0
2018-Oct-29 21:28N 23°34' E 117°06'0 0.0
2018-Oct-29 21:01N 23°34' E 117°06'0 0.0
2018-Oct-29 20:31N 23°34' E 117°06'0 0.0
2018-Oct-29 19:58N 23°34' E 117°06'0 0.0
2018-Oct-29 19:28N 23°34' E 117°06'0 0.0
2018-Oct-29 19:01N 23°34' E 117°06'0 0.0
2018-Oct-29 18:31N 23°34' E 117°06'0 0.0
2018-Oct-29 18:01N 23°34' E 117°06'0 0.0
2018-Oct-29 17:30N 23°34' E 117°06'0 0.0
2018-Oct-29 17:01N 23°34' E 117°06'0 0.0
2018-Oct-29 16:58N 23°34' E 117°06'0 0.0
2018-Oct-29 16:27N 23°34' E 117°06'0 0.0
2018-Oct-29 16:03N 23°34' E 117°06'0 0.0
2018-Oct-29 16:01N 23°34' E 117°06'0 0.0
2018-Oct-29 15:30N 23°34' E 117°06'0 0.0
2018-Oct-29 15:03N 23°34' E 117°06'0 0.1
2018-Oct-29 15:01N 23°34' E 117°06'0 0.0
2018-Oct-29 14:30N 23°34' E 117°06'0 0.0
2018-Oct-29 14:00N 23°34' E 117°06'0 0.0
2018-Oct-29 13:30N 23°34' E 117°06'0 0.0
2018-Oct-29 13:00N 23°34' E 117°06'0 0.0
2018-Oct-29 12:28N 23°34' E 117°06'0 0.0
2018-Oct-29 12:03N 23°34' E 117°06'0 0.0
2018-Oct-29 12:00N 23°34' E 117°06'0 0.0
2018-Oct-29 11:30N 23°34' E 117°06'0 0.0
2018-Oct-29 11:03N 23°34' E 117°06'0 0.0
2018-Oct-29 10:55N 23°34' E 117°06'0 0.0
2018-Oct-29 10:30N 23°34' E 117°06'0 0.0
2018-Oct-29 10:04N 23°34' E 117°06'0 0.1
2018-Oct-29 10:00N 23°34' E 117°06'0 0.0
2018-Oct-29 09:30N 23°34' E 117°06'0 0.0
2018-Oct-29 09:03N 23°34' E 117°06'0 0.0
2018-Oct-29 09:00N 23°34' E 117°06'0 0.0
2018-Oct-29 08:30N 23°34' E 117°06'0 0.0
2018-Oct-29 08:03N 23°34' E 117°06'0 0.0
2018-Oct-29 08:00N 23°34' E 117°06'0 0.0
2018-Oct-29 07:30N 23°34' E 117°06'0 0.0
2018-Oct-29 07:04N 23°34' E 117°06'0 0.0
2018-Oct-29 07:00N 23°34' E 117°06'0 0.0
2018-Oct-29 06:31N 23°34' E 117°06'0 0.0
2018-Oct-29 06:03N 23°34' E 117°06'0 0.0
2018-Oct-29 05:57N 23°34' E 117°06'0 0.0
2018-Oct-29 05:30N 23°34' E 117°06'0 0.0
2018-Oct-29 05:03N 23°34' E 117°06'0 0.1
2018-Oct-29 05:01N 23°34' E 117°06'0 0.0
2018-Oct-29 04:30N 23°34' E 117°06'0 0.0
2018-Oct-29 04:03N 23°34' E 117°06'0 0.0
2018-Oct-29 04:00N 23°34' E 117°06'0 0.0
2018-Oct-29 03:30N 23°34' E 117°06'0 0.0
2018-Oct-29 03:03N 23°34' E 117°06'0 0.0
2018-Oct-29 03:00N 23°34' E 117°06'0 0.0
2018-Oct-29 02:30N 23°34' E 117°06'0 0.0
2018-Oct-29 02:00N 23°34' E 117°06'0 0.0
2018-Oct-29 01:30N 23°34' E 117°06'0 0.0
2018-Oct-29 01:03N 23°34' E 117°06'0 0.0
2018-Oct-29 01:00N 23°34' E 117°06'0 0.0
2018-Oct-29 00:30N 23°34' E 117°06'0 0.0
2018-Oct-29 00:00N 23°34' E 117°06'0 0.0
2018-Oct-28 23:30N 23°34' E 117°06'0 0.0
2018-Oct-28 23:03N 23°34' E 117°06'0 0.0
2018-Oct-28 23:00N 23°34' E 117°06'0 0.0
2018-Oct-28 22:30N 23°34' E 117°06'0 0.0
2018-Oct-28 22:03N 23°34' E 117°06'0 0.0
2018-Oct-28 21:57N 23°34' E 117°06'0 0.0
2018-Oct-28 21:24N 23°34' E 117°06'0 0.0
2018-Oct-28 21:03N 23°34' E 117°06'0 0.1
2018-Oct-28 20:57N 23°34' E 117°06'0 0.0
2018-Oct-28 20:30N 23°34' E 117°06'0 0.0
2018-Oct-28 20:03N 23°34' E 117°06'0 0.1
2018-Oct-28 20:00N 23°34' E 117°06'0 0.0
2018-Oct-28 19:30N 23°34' E 117°06'0 0.0
2018-Oct-28 19:00N 23°34' E 117°06'0 0.0
2018-Oct-28 18:27N 23°34' E 117°06'0 0.0
2018-Oct-28 17:57N 23°34' E 117°06'0 0.0
2018-Oct-28 17:30N 23°34' E 117°06'0 0.0
2018-Oct-28 17:03N 23°34' E 117°06'0 0.0
2018-Oct-28 17:00N 23°34' E 117°06'0 0.0
2018-Oct-28 16:30N 23°34' E 117°06'0 0.0
2018-Oct-28 16:03N 23°34' E 117°06'0 0.1
2018-Oct-28 16:00N 23°34' E 117°06'0 0.0
2018-Oct-28 15:30N 23°34' E 117°06'0 0.0
2018-Oct-28 15:03N 23°34' E 117°06'0 0.0
2018-Oct-28 14:54N 23°34' E 117°06'0 0.0
2018-Oct-28 14:30N 23°34' E 117°06'0 0.0
2018-Oct-28 14:00N 23°34' E 117°06'0 0.0
2018-Oct-28 13:30N 23°34' E 117°06'0 0.0
2018-Oct-28 13:03N 23°34' E 117°06'0 0.0
2018-Oct-28 13:00N 23°34' E 117°06'0 0.0
2018-Oct-28 12:30N 23°34' E 117°06'0 0.0
2018-Oct-28 12:03N 23°34' E 117°06'0 0.0
2018-Oct-28 12:00N 23°34' E 117°06'0 0.0
2018-Oct-28 11:30N 23°34' E 117°06'0 0.0
2018-Oct-28 11:00N 23°34' E 117°06'0 0.0
2018-Oct-28 10:27N 23°34' E 117°06'0 0.0
2018-Oct-28 10:03N 23°34' E 117°06'0 0.0
2018-Oct-28 10:00N 23°34' E 117°06'0 0.0
2018-Oct-28 09:30N 23°34' E 117°06'0 0.0
2018-Oct-28 09:00N 23°34' E 117°06'0 0.0
2018-Oct-28 08:27N 23°34' E 117°06'0 0.0
2018-Oct-28 08:03N 23°34' E 117°06'0 0.0
2018-Oct-28 07:54N 23°34' E 117°06'0 0.0
2018-Oct-28 07:27N 23°34' E 117°06'0 0.0
2018-Oct-28 07:03N 23°34' E 117°06'0 0.0
2018-Oct-28 07:00N 23°34' E 117°06'0 0.0
2018-Oct-28 06:30N 23°34' E 117°06'0 0.0
2018-Oct-28 06:00N 23°34' E 117°06'0 0.0
2018-Oct-28 05:30N 23°34' E 117°06'0 0.0
2018-Oct-28 05:03N 23°34' E 117°06'0 0.1
2018-Oct-28 04:57N 23°34' E 117°06'0 0.0
2018-Oct-28 04:30N 23°34' E 117°06'0 0.0
2018-Oct-28 03:57N 23°34' E 117°06'0 0.0
2018-Oct-28 03:30N 23°34' E 117°06'0 0.0
2018-Oct-28 03:03N 23°34' E 117°06'0 0.0
2018-Oct-28 02:57N 23°34' E 117°06'0 0.0
2018-Oct-28 02:30N 23°34' E 117°06'0 0.0
2018-Oct-28 02:03N 23°34' E 117°06'0 0.1
2018-Oct-28 02:00N 23°34' E 117°06'0 0.0
2018-Oct-28 01:30N 23°34' E 117°06'0 0.0
2018-Oct-28 01:03N 23°34' E 117°06'0 0.0
2018-Oct-28 01:00N 23°34' E 117°06'0 0.0
2018-Oct-28 00:30N 23°34' E 117°06'0 0.0
2018-Oct-28 00:03N 23°34' E 117°06'0 0.0
2018-Oct-27 23:57N 23°34' E 117°06'0 0.0
2018-Oct-27 23:30N 23°34' E 117°06'0 0.0
2018-Oct-27 22:57N 23°34' E 117°06'0 0.0
2018-Oct-27 22:30N 23°34' E 117°06'0 0.0
2018-Oct-27 22:03N 23°34' E 117°06'0 0.1
2018-Oct-27 22:00N 23°34' E 117°06'0 0.0
2018-Oct-27 21:30N 23°34' E 117°06'0 0.0
2018-Oct-27 21:03N 23°34' E 117°06'0 0.1
2018-Oct-27 21:00N 23°34' E 117°06'0 0.0
2018-Oct-27 20:27N 23°34' E 117°06'0 0.0
2018-Oct-27 20:00N 23°34' E 117°06'0 0.0
2018-Oct-27 19:30N 23°34' E 117°06'0 0.0
2018-Oct-27 19:03N 23°34' E 117°06'0 0.0
2018-Oct-27 18:57N 23°34' E 117°06'0 0.0
2018-Oct-27 18:30N 23°34' E 117°06'0 0.0
2018-Oct-27 18:00N 23°34' E 117°06'0 0.0
2018-Oct-27 17:30N 23°34' E 117°06'0 0.0
2018-Oct-27 17:03N 23°34' E 117°06'0 0.0
2018-Oct-27 17:00N 23°34' E 117°06'0 0.0
2018-Oct-27 16:21N 23°34' E 117°06'0 0.0
2018-Oct-27 16:03N 23°34' E 117°06'0 0.0
2018-Oct-27 15:54N 23°34' E 117°06'0 0.0
2018-Oct-27 15:30N 23°34' E 117°06'0 0.0
2018-Oct-27 15:00N 23°34' E 117°06'0 0.0
2018-Oct-27 14:30N 23°34' E 117°06'0 0.0
2018-Oct-27 14:00N 23°34' E 117°06'0 0.0
2018-Oct-27 13:27N 23°34' E 117°06'0 0.0
2018-Oct-27 13:03N 23°34' E 117°06'0 0.0
2018-Oct-27 13:00N 23°34' E 117°06'0 0.0
2018-Oct-27 12:27N 23°34' E 117°06'0 0.0
2018-Oct-27 12:00N 23°34' E 117°06'0 0.0
2018-Oct-27 11:24N 23°34' E 117°06'0 0.0
2018-Oct-27 11:03N 23°34' E 117°06'0 0.0
2018-Oct-27 11:00N 23°34' E 117°06'0 0.0
2018-Oct-27 10:27N 23°34' E 117°06'0 0.0
2018-Oct-27 09:57N 23°34' E 117°06'0 0.0
2018-Oct-27 09:30N 23°34' E 117°06'0 0.0
2018-Oct-27 09:03N 23°34' E 117°06'0 0.1
2018-Oct-27 09:00N 23°34' E 117°06'0 0.0
2018-Oct-27 08:27N 23°34' E 117°06'0 0.0
2018-Oct-27 08:03N 23°34' E 117°06'0 0.0
2018-Oct-27 07:57N 23°34' E 117°06'0 0.0
2018-Oct-27 07:30N 23°34' E 117°06'0 0.0
2018-Oct-27 07:03N 23°34' E 117°06'0 0.1
2018-Oct-27 06:57N 23°34' E 117°06'0 0.0
2018-Oct-27 06:30N 23°34' E 117°06'0 0.0
2018-Oct-27 06:03N 23°34' E 117°06'0 0.1
2018-Oct-27 05:57N 23°34' E 117°06'0 0.0
2018-Oct-27 05:30N 23°34' E 117°06'0 0.0
2018-Oct-27 05:03N 23°34' E 117°06'0 0.1
2018-Oct-27 05:00N 23°34' E 117°06'0 0.0
2018-Oct-27 04:30N 23°34' E 117°06'0 0.0
2018-Oct-27 04:03N 23°34' E 117°06'0 0.0
2018-Oct-27 03:57N 23°34' E 117°06'0 0.0
2018-Oct-27 03:30N 23°34' E 117°06'0 0.0
2018-Oct-27 03:00N 23°34' E 117°06'0 0.0
2018-Oct-27 02:30N 23°34' E 117°06'0 0.0
2018-Oct-27 02:03N 23°34' E 117°06'0 0.0
2018-Oct-27 01:57N 23°34' E 117°06'0 0.0
2018-Oct-27 01:30N 23°34' E 117°06'0 0.0
2018-Oct-27 01:03N 23°34' E 117°06'0 0.1
2018-Oct-27 01:00N 23°34' E 117°06'0 0.0
2018-Oct-27 00:27N 23°34' E 117°06'0 0.0
2018-Oct-27 00:00N 23°34' E 117°06'0 0.0
2018-Oct-26 23:30N 23°34' E 117°06'0 0.0
2018-Oct-26 22:54N 23°34' E 117°06'0 0.0
2018-Oct-26 22:24N 23°34' E 117°06'0 0.0
2018-Oct-26 22:00N 23°34' E 117°06'0 0.0
2018-Oct-26 21:30N 23°34' E 117°06'0 0.0
2018-Oct-26 21:03N 23°34' E 117°06'0 0.0
2018-Oct-26 21:00N 23°34' E 117°06'0 0.0
2018-Oct-26 20:30N 23°34' E 117°06'0 0.0
2018-Oct-26 20:03N 23°34' E 117°06'0 0.0
2018-Oct-26 20:00N 23°34' E 117°06'0 0.0
2018-Oct-26 19:30N 23°34' E 117°06'0 0.0
2018-Oct-26 19:03N 23°34' E 117°06'0 0.0
2018-Oct-26 19:00N 23°34' E 117°06'0 0.0
2018-Oct-26 18:30N 23°34' E 117°06'0 0.0
2018-Oct-26 18:03N 23°34' E 117°06'0 0.0
2018-Oct-26 18:00N 23°34' E 117°06'0 0.0
2018-Oct-26 17:27N 23°34' E 117°06'0 0.0
2018-Oct-26 17:01N 23°34' E 117°06'0 0.0
2018-Oct-26 16:57N 23°34' E 117°06'0 0.0
2018-Oct-26 16:30N 23°34' E 117°06'0 0.0
2018-Oct-26 16:03N 23°34' E 117°06'0 0.0
2018-Oct-26 15:54N 23°34' E 117°06'0 0.0
2018-Oct-26 15:30N 23°34' E 117°06'0 0.0
2018-Oct-26 15:00N 23°34' E 117°06'0 0.0
2018-Oct-26 14:27N 23°34' E 117°06'0 0.0
2018-Oct-26 13:57N 23°34' E 117°06'0 0.0
2018-Oct-26 13:27N 23°34' E 117°06'0 0.0
2018-Oct-26 13:03N 23°34' E 117°06'0 0.0
2018-Oct-26 12:57N 23°34' E 117°06'0 0.0
2018-Oct-26 12:30N 23°34' E 117°06'0 0.0
2018-Oct-26 11:57N 23°34' E 117°06'0 0.0
2018-Oct-26 11:24N 23°34' E 117°06'0 0.0
2018-Oct-26 11:03N 23°34' E 117°06'0 0.0
2018-Oct-26 11:00N 23°34' E 117°06'0 0.0
2018-Oct-26 10:30N 23°34' E 117°06'0 0.0
2018-Oct-26 10:00N 23°34' E 117°06'0 0.0
2018-Oct-26 09:30N 23°34' E 117°06'0 0.0
2018-Oct-26 08:57N 23°34' E 117°06'0 0.0
2018-Oct-26 08:30N 23°34' E 117°06'0 0.0
2018-Oct-26 08:03N 23°34' E 117°06'0 0.0
2018-Oct-26 08:00N 23°34' E 117°06'0 0.0
2018-Oct-26 07:30N 23°34' E 117°06'0 0.0
2018-Oct-26 07:03N 23°34' E 117°06'0 0.0
2018-Oct-26 06:57N 23°34' E 117°06'0 0.0
2018-Oct-26 06:30N 23°34' E 117°06'0 0.0
2018-Oct-26 06:03N 23°34' E 117°06'0 0.0
2018-Oct-26 06:00N 23°34' E 117°06'0 0.0
2018-Oct-26 05:30N 23°34' E 117°06'0 0.4
2018-Oct-26 05:03N 23°34' E 117°06'0 1.1
2018-Oct-26 05:00N 23°34' E 117°06'2 4.2
2018-Oct-26 04:30N 23°32' E 117°08'2 4.7
2018-Oct-26 04:03N 23°30' E 117°09'0 4.3
2018-Oct-26 04:00N 23°30' E 117°09'2 4.5
2018-Oct-26 03:30N 23°29' E 117°11'3 6.1
2018-Oct-26 03:03N 23°27' E 117°13'0 5.7
2018-Oct-26 03:00N 23°27' E 117°14'2 4.1
2018-Oct-26 02:30N 23°27' E 117°16'1 3.3
2018-Oct-26 02:03N 23°27' E 117°17'0 2.2
2018-Oct-26 02:00N 23°27' E 117°17'1 1.9
2018-Oct-26 01:30N 23°28' E 117°18'0 0.2
2018-Oct-26 01:01N 23°27' E 117°19'0 0.1
2018-Oct-26 00:58N 23°27' E 117°19'0 0.0
2018-Oct-26 00:28N 23°27' E 117°19'0 0.0
2018-Oct-26 00:01N 23°27' E 117°19'0 0.0
2018-Oct-25 23:58N 23°27' E 117°19'0 0.1
2018-Oct-25 23:28N 23°27' E 117°19'0 0.4
2018-Oct-25 23:02N 23°27' E 117°18'0 0.4
2018-Oct-25 22:52N 23°27' E 117°18'0 0.0
2018-Oct-25 22:25N 23°27' E 117°18'0 0.1
2018-Oct-25 22:01N 23°27' E 117°18'0 0.0
2018-Oct-25 21:58N 23°27' E 117°18'0 0.0
2018-Oct-25 21:28N 23°27' E 117°18'0 0.0
2018-Oct-25 21:01N 23°27' E 117°18'0 0.0
2018-Oct-25 20:49N 23°27' E 117°18'0 0.0
2018-Oct-25 20:28N 23°27' E 117°18'0 0.0
2018-Oct-25 20:01N 23°27' E 117°18'0 0.0
2018-Oct-25 19:58N 23°27' E 117°18'0 0.0
2018-Oct-25 19:28N 23°27' E 117°18'0 0.0
2018-Oct-25 19:01N 23°27' E 117°18'0 0.1
2018-Oct-25 18:58N 23°27' E 117°18'0 0.1
2018-Oct-25 18:28N 23°27' E 117°18'0 0.0
2018-Oct-25 17:52N 23°27' E 117°18'0 0.3
2018-Oct-25 17:25N 23°27' E 117°18'0 0.3
2018-Oct-25 17:01N 23°27' E 117°18'0 0.1
2018-Oct-25 16:58N 23°27' E 117°18'0 0.1
2018-Oct-25 16:28N 23°27' E 117°19'0 0.0
2018-Oct-25 16:01N 23°27' E 117°19'0 0.0
2018-Oct-25 15:52N 23°27' E 117°19'0 0.0
2018-Oct-25 15:28N 23°27' E 117°19'0 0.0
2018-Oct-25 14:55N 23°27' E 117°19'0 0.0
2018-Oct-25 14:22N 23°27' E 117°19'0 0.0
2018-Oct-25 13:58N 23°27' E 117°19'0 0.0
2018-Oct-25 13:28N 23°27' E 117°19'0 0.0
2018-Oct-25 13:01N 23°27' E 117°19'0 0.0
2018-Oct-25 12:52N 23°27' E 117°19'0 0.0
2018-Oct-25 12:25N 23°27' E 117°19'0 0.0
2018-Oct-25 12:01N 23°27' E 117°19'0 0.0
2018-Oct-25 11:55N 23°27' E 117°19'0 0.2
2018-Oct-25 11:20N 23°27' E 117°18'0 0.4
2018-Oct-25 11:01N 23°27' E 117°18'0 0.2
2018-Oct-25 10:55N 23°27' E 117°18'0 0.2
2018-Oct-25 10:28N 23°27' E 117°18'0 0.1
2018-Oct-25 09:58N 23°27' E 117°18'0 0.0
2018-Oct-25 09:28N 23°27' E 117°18'0 0.0
2018-Oct-25 09:01N 23°27' E 117°18'0 0.1
2018-Oct-25 08:55N 23°27' E 117°18'0 0.0
2018-Oct-25 08:25N 23°27' E 117°18'0 0.0
2018-Oct-25 08:01N 23°27' E 117°18'0 0.0
2018-Oct-25 07:52N 23°27' E 117°18'0 0.0
2018-Oct-25 07:25N 23°27' E 117°18'0 0.0
2018-Oct-25 07:01N 23°27' E 117°18'0 0.1
2018-Oct-25 06:55N 23°27' E 117°18'0 0.0
2018-Oct-25 06:25N 23°27' E 117°18'0 0.0
2018-Oct-25 06:01N 23°27' E 117°18'0 0.6
2018-Oct-25 05:55N 23°27' E 117°18'0 0.0
2018-Oct-25 05:26N 23°27' E 117°18'0 0.1
2018-Oct-25 05:01N 23°27' E 117°18'0 0.6
2018-Oct-25 04:55N 23°27' E 117°18'0 0.3
2018-Oct-25 04:28N 23°27' E 117°18'0 0.1
2018-Oct-25 04:01N 23°27' E 117°18'0 0.1
2018-Oct-25 03:58N 23°27' E 117°18'0 0.1
2018-Oct-25 03:28N 23°27' E 117°19'0 0.0
2018-Oct-25 03:01N 23°27' E 117°19'0 0.0
2018-Oct-25 02:58N 23°27' E 117°19'0 0.0
2018-Oct-25 02:28N 23°27' E 117°19'0 0.0
2018-Oct-25 02:01N 23°27' E 117°19'0 0.0
2018-Oct-25 01:58N 23°27' E 117°19'0 0.0
2018-Oct-25 01:28N 23°27' E 117°19'0 0.0
2018-Oct-25 01:01N 23°27' E 117°19'0 0.1
2018-Oct-25 00:58N 23°27' E 117°19'0 0.0
2018-Oct-25 00:28N 23°27' E 117°19'0 0.0
2018-Oct-25 00:01N 23°27' E 117°19'0 0.1
2018-Oct-24 23:58N 23°27' E 117°19'0 0.3
2018-Oct-24 23:19N 23°27' E 117°18'0 0.3
2018-Oct-24 22:49N 23°27' E 117°18'0 0.1
2018-Oct-24 22:28N 23°27' E 117°18'0 0.1
2018-Oct-24 22:01N 23°27' E 117°18'0 0.1
2018-Oct-24 21:43N 23°27' E 117°18'0 0.0
2018-Oct-24 21:28N 23°27' E 117°18'0 0.1
2018-Oct-24 20:55N 23°27' E 117°18'0 0.0
2018-Oct-24 20:28N 23°27' E 117°18'0 0.0
2018-Oct-24 19:52N 23°27' E 117°18'0 0.0
2018-Oct-24 19:28N 23°27' E 117°18'0 0.0
2018-Oct-24 19:01N 23°27' E 117°18'0 0.1
2018-Oct-24 18:22N 23°27' E 117°18'0 0.0
2018-Oct-24 17:49N 23°27' E 117°18'0 0.0
2018-Oct-24 17:25N 23°27' E 117°18'0 0.0
2018-Oct-24 16:58N 23°27' E 117°18'0 0.0
2018-Oct-24 16:25N 23°27' E 117°18'0 0.2
2018-Oct-24 16:01N 23°27' E 117°18'0 0.6
2018-Oct-24 15:55N 23°27' E 117°18'0 0.2
2018-Oct-24 15:28N 23°27' E 117°18'0 0.2
2018-Oct-24 14:55N 23°27' E 117°19'0 0.0
2018-Oct-24 14:28N 23°27' E 117°19'0 0.0
2018-Oct-24 14:01N 23°27' E 117°19'0 0.0
2018-Oct-24 13:52N 23°27' E 117°19'0 0.0
2018-Oct-24 13:28N 23°27' E 117°19'0 0.0
2018-Oct-24 13:01N 23°27' E 117°19'0 0.0
2018-Oct-24 12:58N 23°27' E 117°19'0 0.0
2018-Oct-24 12:25N 23°27' E 117°19'0 0.1
2018-Oct-24 12:01N 23°27' E 117°18'0 0.1
2018-Oct-24 11:58N 23°27' E 117°18'0 0.2
2018-Oct-24 11:25N 23°27' E 117°18'0 0.2
2018-Oct-24 10:37N 23°27' E 117°18'0 0.1
2018-Oct-24 10:19N 23°27' E 117°18'0 0.1
2018-Oct-24 10:01N 23°27' E 117°18'0 0.1
2018-Oct-24 09:55N 23°27' E 117°18'0 0.1
2018-Oct-24 09:22N 23°27' E 117°18'0 0.1
2018-Oct-24 09:01N 23°27' E 117°18'0 0.0
2018-Oct-24 08:49N 23°27' E 117°18'0 0.0
2018-Oct-24 08:28N 23°27' E 117°18'0 0.1
2018-Oct-24 07:58N 23°27' E 117°18'0 0.0
2018-Oct-24 07:16N 23°27' E 117°18'0 0.2
2018-Oct-24 07:01N 23°27' E 117°18'0 0.0
2018-Oct-24 06:52N 23°27' E 117°18'0 0.0
2018-Oct-24 06:25N 23°27' E 117°18'0 0.0
2018-Oct-24 05:28N 23°27' E 117°18'0 0.1
2018-Oct-24 04:58N 23°27' E 117°18'0 0.0
2018-Oct-24 04:28N 23°27' E 117°18'0 0.0
2018-Oct-24 03:52N 23°27' E 117°18'0 0.3
2018-Oct-24 03:28N 23°27' E 117°18'0 0.2
2018-Oct-24 02:58N 23°27' E 117°18'0 0.1
2018-Oct-24 02:28N 23°27' E 117°19'0 0.0
2018-Oct-24 02:01N 23°27' E 117°19'0 0.1
2018-Oct-24 01:58N 23°27' E 117°19'0 0.0
2018-Oct-24 01:28N 23°27' E 117°19'0 0.0
2018-Oct-24 01:01N 23°27' E 117°19'0 0.0
2018-Oct-24 00:58N 23°27' E 117°19'0 0.0
2018-Oct-24 00:28N 23°27' E 117°19'0 0.1
2018-Oct-24 00:01N 23°27' E 117°18'0 0.0
2018-Oct-23 23:58N 23°27' E 117°18'0 0.2
2018-Oct-23 23:28N 23°27' E 117°18'0 0.2
2018-Oct-23 22:55N 23°27' E 117°18'0 0.1
2018-Oct-23 22:28N 23°27' E 117°18'0 0.1
2018-Oct-23 22:01N 23°27' E 117°18'0 0.0
2018-Oct-23 21:58N 23°27' E 117°18'0 0.0
2018-Oct-23 21:28N 23°27' E 117°18'0 0.0
2018-Oct-23 21:01N 23°27' E 117°18'0 0.0
2018-Oct-23 20:58N 23°27' E 117°18'0 0.0
2018-Oct-23 20:28N 23°27' E 117°18'0 0.0
2018-Oct-23 19:58N 23°27' E 117°18'0 0.0
2018-Oct-23 19:28N 23°27' E 117°18'0 0.0
2018-Oct-23 18:55N 23°27' E 117°18'0 0.0
2018-Oct-23 18:28N 23°27' E 117°18'0 0.0
2018-Oct-23 18:01N 23°27' E 117°18'0 0.0
2018-Oct-23 17:58N 23°27' E 117°18'0 0.0
2018-Oct-23 17:28N 23°27' E 117°18'0 0.0
2018-Oct-23 17:01N 23°27' E 117°18'0 0.0
2018-Oct-23 16:58N 23°27' E 117°18'0 0.0
2018-Oct-23 16:28N 23°27' E 117°18'0 0.0
2018-Oct-23 16:01N 23°27' E 117°18'0 0.0
2018-Oct-23 15:58N 23°27' E 117°18'0 0.2
2018-Oct-23 15:16N 23°27' E 117°18'0 0.2
2018-Oct-23 15:01N 23°27' E 117°18'0 1.1
2018-Oct-23 14:58N 23°27' E 117°18'0 0.1
2018-Oct-23 13:52N 23°27' E 117°19'0 0.0
2018-Oct-23 13:25N 23°27' E 117°19'0 0.0
2018-Oct-23 13:01N 23°27' E 117°19'0 0.0
2018-Oct-23 12:58N 23°27' E 117°19'0 0.0
2018-Oct-23 12:28N 23°27' E 117°19'0 0.0
2018-Oct-23 12:01N 23°27' E 117°19'0 0.1
2018-Oct-23 11:58N 23°27' E 117°19'0 0.1
2018-Oct-23 11:28N 23°27' E 117°18'0 0.1
2018-Oct-23 11:01N 23°27' E 117°18'0 0.1
2018-Oct-23 10:55N 23°27' E 117°18'0 0.1
2018-Oct-23 10:28N 23°27' E 117°18'0 0.2
2018-Oct-23 10:01N 23°27' E 117°18'0 0.6
2018-Oct-23 09:55N 23°27' E 117°18'0 0.1
2018-Oct-23 09:28N 23°27' E 117°18'0 0.1
2018-Oct-23 08:55N 23°27' E 117°18'0 0.0
2018-Oct-23 08:28N 23°27' E 117°18'0 0.0
2018-Oct-23 07:55N 23°27' E 117°18'0 0.0
2018-Oct-23 07:28N 23°27' E 117°18'0 0.0
2018-Oct-23 07:01N 23°27' E 117°18'0 0.0
2018-Oct-23 06:58N 23°27' E 117°18'0 0.0
2018-Oct-23 06:25N 23°27' E 117°18'0 0.0
2018-Oct-23 05:58N 23°27' E 117°18'0 0.0
2018-Oct-23 05:28N 23°27' E 117°18'0 0.1
2018-Oct-23 05:01N 23°27' E 117°18'0 0.1
2018-Oct-23 04:58N 23°27' E 117°18'0 0.0
2018-Oct-23 04:22N 23°27' E 117°18'0 0.3
2018-Oct-23 03:55N 23°27' E 117°18'0 0.3
2018-Oct-23 03:28N 23°27' E 117°18'0 0.1
2018-Oct-23 03:01N 23°27' E 117°18'0 0.1
2018-Oct-23 02:58N 23°27' E 117°18'0 0.0
2018-Oct-23 02:28N 23°27' E 117°18'0 0.1
2018-Oct-23 01:55N 23°27' E 117°19'0 0.0
2018-Oct-23 01:28N 23°27' E 117°19'0 0.0
2018-Oct-23 01:04N 23°27' E 117°19'0 0.0
2018-Oct-23 00:58N 23°27' E 117°19'0 0.0
2018-Oct-23 00:28N 23°27' E 117°19'0 0.0
2018-Oct-23 00:01N 23°27' E 117°19'0 0.0
2018-Oct-22 23:55N 23°27' E 117°19'0 0.0
2018-Oct-22 23:25N 23°27' E 117°19'0 0.0
2018-Oct-22 23:01N 23°27' E 117°19'0 0.1
2018-Oct-22 22:55N 23°27' E 117°19'0 0.1
2018-Oct-22 22:28N 23°27' E 117°18'0 0.1
2018-Oct-22 22:01N 23°27' E 117°18'0 0.4
2018-Oct-22 21:58N 23°27' E 117°18'0 0.3
2018-Oct-22 21:19N 23°27' E 117°18'0 0.2
2018-Oct-22 21:01N 23°27' E 117°18'0 0.0
2018-Oct-22 20:58N 23°27' E 117°18'0 0.0
2018-Oct-22 20:28N 23°27' E 117°18'0 0.0
2018-Oct-22 19:58N 23°27' E 117°18'0 0.0
2018-Oct-22 19:28N 23°27' E 117°18'0 0.0
2018-Oct-22 18:58N 23°27' E 117°18'0 0.1
2018-Oct-22 18:28N 23°27' E 117°18'0 0.0
2018-Oct-22 18:01N 23°27' E 117°18'0 0.0
2018-Oct-22 17:58N 23°27' E 117°18'0 0.0
2018-Oct-22 17:28N 23°27' E 117°18'  

Dump ship's entire track history